createdAt,value
2023-04-28T00:00:15.342Z,4.80
2023-04-28T00:01:15.321Z,5.20
2023-04-28T00:02:15.368Z,5.40
2023-04-28T00:03:15.413Z,5.10
2023-04-28T00:04:15.845Z,4.90
2023-04-28T00:05:15.458Z,4.80
2023-04-28T00:06:15.281Z,4.70
2023-04-28T00:07:15.285Z,5.00
2023-04-28T00:08:15.263Z,5.20
2023-04-28T00:09:15.246Z,4.90
2023-04-28T00:10:15.240Z,5.40
2023-04-28T00:11:15.248Z,5.00
2023-04-28T00:12:15.247Z,5.40
2023-04-28T00:13:15.187Z,5.10
2023-04-28T00:14:15.705Z,5.30
2023-04-28T00:15:15.189Z,5.00
2023-04-28T00:16:15.206Z,5.10
2023-04-28T00:17:15.334Z,5.20
2023-04-28T00:18:15.187Z,4.80
2023-04-28T00:19:15.139Z,5.20
2023-04-28T00:20:15.154Z,4.70
2023-04-28T00:21:15.130Z,4.60
2023-04-28T00:22:15.160Z,4.60
2023-04-28T00:23:15.104Z,4.50
2023-04-28T00:24:15.393Z,4.50
2023-04-28T00:25:15.093Z,4.50
2023-04-28T00:26:15.055Z,4.70
2023-04-28T00:27:15.070Z,4.50
2023-04-28T00:28:26.841Z,4.80
2023-04-28T00:29:15.035Z,4.70
2023-04-28T00:30:15.014Z,4.70
2023-04-28T00:31:15.128Z,4.90
2023-04-28T00:32:15.049Z,5.00
2023-04-28T00:33:14.987Z,5.30
2023-04-28T00:34:15.279Z,5.10
2023-04-28T00:35:15.027Z,5.30
2023-04-28T00:36:15.073Z,5.40
2023-04-28T00:37:15.027Z,5.10
2023-04-28T00:38:15.060Z,5.60
2023-04-28T00:39:14.945Z,5.40
2023-04-28T00:40:14.906Z,5.20
2023-04-28T00:41:14.897Z,5.30
2023-04-28T00:42:14.918Z,5.20
2023-04-28T00:43:14.880Z,5.40
2023-04-28T00:44:15.053Z,5.60
2023-04-28T00:45:14.846Z,5.50
2023-04-28T00:46:14.935Z,5.50
2023-04-28T00:47:14.888Z,5.70
2023-04-28T00:48:14.819Z,5.60
2023-04-28T00:49:14.821Z,5.80
2023-04-28T00:50:14.844Z,5.50
2023-04-28T00:51:14.790Z,5.60
2023-04-28T00:52:14.819Z,5.80
2023-04-28T00:53:14.777Z,5.60
2023-04-28T00:54:15.217Z,5.50
2023-04-28T00:55:14.744Z,5.90
2023-04-28T00:56:14.761Z,6.00
2023-04-28T00:57:14.790Z,6.10
2023-04-28T00:58:14.720Z,6.00
2023-04-28T00:59:14.744Z,5.70
2023-04-28T01:00:14.711Z,6.00
2023-04-28T01:01:14.770Z,5.70
2023-04-28T01:02:14.725Z,5.80
2023-04-28T01:03:14.831Z,5.70
2023-04-28T01:04:15.066Z,6.00
2023-04-28T01:05:14.642Z,6.00
2023-04-28T01:06:14.641Z,6.20
2023-04-28T01:07:14.659Z,6.00
2023-04-28T01:08:14.636Z,6.70
2023-04-28T01:09:14.621Z,6.40
2023-04-28T01:10:14.595Z,6.50
2023-04-28T01:11:14.580Z,6.60
2023-04-28T01:12:14.602Z,6.50
2023-04-28T01:13:14.573Z,6.60
2023-04-28T01:14:14.786Z,6.00
2023-04-28T01:15:14.585Z,6.80
2023-04-28T01:16:14.546Z,6.80
2023-04-28T01:17:14.565Z,6.60
2023-04-28T01:18:14.523Z,7.00
2023-04-28T01:19:14.501Z,7.00
2023-04-28T01:20:14.513Z,7.40
2023-04-28T01:21:14.498Z,7.30
2023-04-28T01:22:14.542Z,7.00
2023-04-28T01:23:14.498Z,6.80
2023-04-28T01:24:14.622Z,7.00
2023-04-28T01:25:14.450Z,7.40
2023-04-28T01:26:14.496Z,6.90
2023-04-28T01:27:14.462Z,7.20
2023-04-28T01:28:14.436Z,7.50
2023-04-28T01:29:14.411Z,7.30
2023-04-28T01:30:14.418Z,7.20
2023-04-28T01:31:14.415Z,7.40
2023-04-28T01:32:14.366Z,7.80
2023-04-28T01:33:14.378Z,7.00
2023-04-28T01:34:14.560Z,7.50
2023-04-28T01:35:14.343Z,7.60
2023-04-28T01:36:14.352Z,7.70
2023-04-28T01:37:14.369Z,7.80
2023-04-28T01:38:14.318Z,7.60
2023-04-28T01:39:14.305Z,8.00
2023-04-28T01:40:14.296Z,7.60
2023-04-28T01:41:14.322Z,7.80
2023-04-28T01:42:14.315Z,8.30
2023-04-28T01:43:14.270Z,7.90
2023-04-28T01:44:14.647Z,8.10
2023-04-28T01:45:14.269Z,7.50
2023-04-28T01:46:14.272Z,7.90
2023-04-28T01:47:14.257Z,7.90
2023-04-28T01:48:14.265Z,7.60
2023-04-28T01:49:14.267Z,8.60
2023-04-28T01:50:14.191Z,8.20
2023-04-28T01:51:14.175Z,7.70
2023-04-28T01:52:14.251Z,8.10
2023-04-28T01:53:14.243Z,8.30
2023-04-28T01:54:14.263Z,8.70
2023-04-28T01:55:14.122Z,8.40
2023-04-28T01:56:14.129Z,8.10
2023-04-28T01:57:15.066Z,8.90
2023-04-28T01:58:14.106Z,7.70
2023-04-28T01:59:14.112Z,8.50
2023-04-28T02:00:14.082Z,9.00
2023-04-28T02:01:14.134Z,8.00
2023-04-28T02:02:14.060Z,8.40
2023-04-28T02:03:14.187Z,8.40
2023-04-28T02:04:14.365Z,8.30
2023-04-28T02:05:14.019Z,8.50
2023-04-28T02:06:14.025Z,8.00
2023-04-28T02:07:14.013Z,7.70
2023-04-28T02:08:14.025Z,7.70
2023-04-28T02:09:14.005Z,7.70
2023-04-28T02:10:14.003Z,7.60
2023-04-28T02:11:13.957Z,8.20
2023-04-28T02:12:13.969Z,7.90
2023-04-28T02:13:13.953Z,8.40
2023-04-28T02:14:14.117Z,7.60
2023-04-28T02:15:13.933Z,7.70
2023-04-28T02:16:14.006Z,7.70
2023-04-28T02:17:13.897Z,7.60
2023-04-28T02:18:13.952Z,7.30
2023-04-28T02:19:13.909Z,7.90
2023-04-28T02:20:13.887Z,7.20
2023-04-28T02:21:13.859Z,7.90
2023-04-28T02:22:13.861Z,6.90
2023-04-28T02:23:13.894Z,7.10
2023-04-28T02:24:14.234Z,7.50
2023-04-28T02:25:13.831Z,6.90
2023-04-28T02:26:13.802Z,7.40
2023-04-28T02:27:13.792Z,7.30
2023-04-28T02:28:13.810Z,6.90
2023-04-28T02:29:13.835Z,7.10
2023-04-28T02:30:13.764Z,7.60
2023-04-28T02:31:13.831Z,7.30
2023-04-28T02:32:13.757Z,7.20
2023-04-28T02:33:13.776Z,6.60
2023-04-28T02:34:14.079Z,7.20
2023-04-28T02:35:13.726Z,6.80
2023-04-28T02:36:13.738Z,7.20
2023-04-28T02:37:13.683Z,6.80
2023-04-28T02:38:13.703Z,7.40
2023-04-28T02:39:13.709Z,6.90
2023-04-28T02:40:13.653Z,6.40
2023-04-28T02:41:13.651Z,7.10
2023-04-28T02:42:13.654Z,6.90
2023-04-28T02:43:13.657Z,6.80
2023-04-28T02:44:13.671Z,7.00
2023-04-28T02:45:13.603Z,7.10
2023-04-28T02:46:13.654Z,6.80
2023-04-28T02:47:13.616Z,7.20
2023-04-28T02:48:13.625Z,6.90
2023-04-28T02:49:13.572Z,6.50
2023-04-28T02:50:13.556Z,6.70
2023-04-28T02:51:13.541Z,6.80
2023-04-28T02:52:13.540Z,7.20
2023-04-28T02:53:13.573Z,6.70
2023-04-28T02:54:13.698Z,6.70
2023-04-28T02:55:13.513Z,6.60
2023-04-28T02:56:13.501Z,6.90
2023-04-28T02:57:13.501Z,6.80
2023-04-28T02:58:13.505Z,6.90
2023-04-28T02:59:13.476Z,6.90
2023-04-28T03:00:13.456Z,7.10
2023-04-28T03:01:13.473Z,6.90
2023-04-28T03:02:13.435Z,6.50
2023-04-28T03:03:13.665Z,7.30
2023-04-28T03:04:13.536Z,7.20
2023-04-28T03:05:13.402Z,7.10
2023-04-28T03:06:13.390Z,7.30
2023-04-28T03:07:13.384Z,7.00
2023-04-28T03:08:13.401Z,7.40
2023-04-28T03:09:13.365Z,7.20
2023-04-28T03:10:13.383Z,7.20
2023-04-28T03:11:13.362Z,7.70
2023-04-28T03:12:13.354Z,7.10
2023-04-28T03:13:13.335Z,7.80
2023-04-28T03:14:13.413Z,7.80
2023-04-28T03:15:14.179Z,7.60
2023-04-28T03:16:13.347Z,7.40
2023-04-28T03:17:13.276Z,7.70
2023-04-28T03:18:13.338Z,8.00
2023-04-28T03:19:13.270Z,7.30
2023-04-28T03:20:13.271Z,8.00
2023-04-28T03:21:13.262Z,7.90
2023-04-28T03:22:13.216Z,8.00
2023-04-28T03:23:13.229Z,8.20
2023-04-28T03:24:13.342Z,8.60
2023-04-28T03:25:13.197Z,8.20
2023-04-28T03:26:13.197Z,7.90
2023-04-28T03:27:13.160Z,8.60
2023-04-28T03:28:13.177Z,8.40
2023-04-28T03:29:13.136Z,8.30
2023-04-28T03:30:13.090Z,8.30
2023-04-28T03:31:13.110Z,8.00
2023-04-28T03:32:13.134Z,8.50
2023-04-28T03:33:13.074Z,7.80
2023-04-28T03:34:13.067Z,8.70
2023-04-28T03:35:13.033Z,8.30
2023-04-28T03:36:13.055Z,8.40
2023-04-28T03:37:13.018Z,8.10
2023-04-28T03:38:13.032Z,8.40
2023-04-28T03:39:13.010Z,9.00
2023-04-28T03:40:13.001Z,8.40
2023-04-28T03:41:12.980Z,8.40
2023-04-28T03:42:12.985Z,8.40
2023-04-28T03:43:12.981Z,7.80
2023-04-28T03:44:12.991Z,8.20
2023-04-28T03:45:12.935Z,8.20
2023-04-28T03:46:12.942Z,8.50
2023-04-28T03:47:12.920Z,7.90
2023-04-28T03:48:13.019Z,8.20
2023-04-28T03:49:12.917Z,8.30
2023-04-28T03:50:12.878Z,7.90
2023-04-28T03:51:12.860Z,8.90
2023-04-28T03:52:12.874Z,8.40
2023-04-28T03:53:12.932Z,8.90
2023-04-28T03:54:12.872Z,8.50
2023-04-28T03:55:12.833Z,8.30
2023-04-28T03:56:12.818Z,8.20
2023-04-28T03:57:12.840Z,8.50
2023-04-28T03:58:12.821Z,8.20
2023-04-28T03:59:12.802Z,8.30
2023-04-28T04:00:12.851Z,8.90
2023-04-28T04:01:12.784Z,9.40
2023-04-28T04:02:12.810Z,9.60
2023-04-28T04:03:12.959Z,9.40
2023-04-28T04:04:12.904Z,9.40
2023-04-28T04:05:12.806Z,9.20
2023-04-28T04:06:14.633Z,9.40
2023-04-28T04:07:12.697Z,9.00
2023-04-28T04:08:12.750Z,9.40
2023-04-28T04:09:12.697Z,9.70
2023-04-28T04:10:12.689Z,10.30
2023-04-28T04:11:12.687Z,10.50
2023-04-28T04:12:12.678Z,9.40
2023-04-28T04:13:12.725Z,9.90
2023-04-28T04:14:12.660Z,9.10
2023-04-28T04:15:12.642Z,9.40
2023-04-28T04:16:12.734Z,9.70
2023-04-28T04:17:12.629Z,10.40
2023-04-28T04:18:12.663Z,11.10
2023-04-28T04:19:13.109Z,9.90
2023-04-28T04:20:12.594Z,10.40
2023-04-28T04:21:12.612Z,10.60
2023-04-28T04:22:12.551Z,10.10
2023-04-28T04:23:12.622Z,10.10
2023-04-28T04:24:12.564Z,10.10
2023-04-28T04:25:12.540Z,10.00
2023-04-28T04:26:12.523Z,9.90
2023-04-28T04:27:12.562Z,9.40
2023-04-28T04:28:12.530Z,9.30
2023-04-28T04:29:12.503Z,9.70
2023-04-28T04:30:12.474Z,10.20
2023-04-28T04:31:12.556Z,9.60
2023-04-28T04:32:12.478Z,9.20
2023-04-28T04:33:12.469Z,9.20
2023-04-28T04:34:12.529Z,9.30
2023-04-28T04:35:12.429Z,8.70
2023-04-28T04:36:12.432Z,9.50
2023-04-28T04:37:12.452Z,9.70
2023-04-28T04:38:12.495Z,9.50
2023-04-28T04:39:12.558Z,9.90
2023-04-28T04:40:12.403Z,9.60
2023-04-28T04:41:12.383Z,9.60
2023-04-28T04:42:24.115Z,10.00
2023-04-28T04:43:12.396Z,10.40
2023-04-28T04:44:14.179Z,10.10
2023-04-28T04:45:12.358Z,9.10
2023-04-28T04:46:12.363Z,9.40
2023-04-28T04:47:12.453Z,9.60
2023-04-28T04:48:12.536Z,8.80
2023-04-28T04:49:12.355Z,9.40
2023-04-28T04:50:12.291Z,9.10
2023-04-28T04:51:12.266Z,8.80
2023-04-28T04:52:12.280Z,9.30
2023-04-28T04:53:14.000Z,9.40
2023-04-28T04:54:12.358Z,8.90
2023-04-28T04:55:12.253Z,9.40
2023-04-28T04:56:12.322Z,8.60
2023-04-28T04:57:12.337Z,9.20
2023-04-28T04:58:12.246Z,8.60
2023-04-28T04:59:12.209Z,8.50
2023-04-28T05:00:12.192Z,9.30
2023-04-28T05:01:12.179Z,8.70
2023-04-28T05:02:12.330Z,9.40
2023-04-28T05:03:12.287Z,9.00
2023-04-28T05:04:12.286Z,8.90
2023-04-28T05:05:20.642Z,9.40
2023-04-28T05:06:12.160Z,9.50
2023-04-28T05:07:12.154Z,9.30
2023-04-28T05:08:12.211Z,9.20
2023-04-28T05:09:12.118Z,9.30
2023-04-28T05:10:12.085Z,9.40
2023-04-28T05:11:12.068Z,9.20
2023-04-28T05:12:18.903Z,9.00
2023-04-28T05:13:12.084Z,9.20
2023-04-28T05:14:12.056Z,9.50
2023-04-28T05:15:12.025Z,9.20
2023-04-28T05:16:12.060Z,9.40
2023-04-28T05:17:12.006Z,9.10
2023-04-28T05:18:12.083Z,9.50
2023-04-28T05:19:11.990Z,9.90
2023-04-28T05:20:12.937Z,9.40
2023-04-28T05:21:11.980Z,9.20
2023-04-28T05:22:11.961Z,9.60
2023-04-28T05:23:12.003Z,9.50
2023-04-28T05:24:11.957Z,9.50
2023-04-28T05:25:11.930Z,9.60
2023-04-28T05:26:12.031Z,10.20
2023-04-28T05:27:11.908Z,10.20
2023-04-28T05:28:11.959Z,9.50
2023-04-28T05:29:11.947Z,10.60
2023-04-28T05:30:11.875Z,10.00
2023-04-28T05:31:11.864Z,9.40
2023-04-28T05:32:12.361Z,9.60
2023-04-28T05:33:12.336Z,9.60
2023-04-28T05:34:11.827Z,9.30
2023-04-28T05:35:12.623Z,9.20
2023-04-28T05:36:13.276Z,9.40
2023-04-28T05:37:11.781Z,9.30
2023-04-28T05:38:11.812Z,9.30
2023-04-28T05:39:11.792Z,9.40
2023-04-28T05:40:11.746Z,9.70
2023-04-28T05:41:11.787Z,9.90
2023-04-28T05:42:11.729Z,9.40
2023-04-28T05:43:11.767Z,10.80
2023-04-28T05:44:11.722Z,9.90
2023-04-28T05:45:11.712Z,9.90
2023-04-28T05:46:28.473Z,9.90
2023-04-28T05:47:11.695Z,10.30
2023-04-28T05:48:11.817Z,10.40
2023-04-28T05:49:11.670Z,10.40
2023-04-28T05:50:11.649Z,10.00
2023-04-28T05:51:11.642Z,9.50
2023-04-28T05:52:11.619Z,10.00
2023-04-28T05:53:11.648Z,10.20
2023-04-28T05:54:11.639Z,9.90
2023-04-28T05:55:11.593Z,10.10
2023-04-28T05:56:11.579Z,10.30
2023-04-28T05:57:11.573Z,9.90
2023-04-28T05:58:11.578Z,10.40
2023-04-28T05:59:11.562Z,10.20
2023-04-28T06:00:11.552Z,10.20
2023-04-28T06:01:11.542Z,9.90
2023-04-28T06:02:11.537Z,10.50
2023-04-28T06:03:11.749Z,10.40
2023-04-28T06:04:11.845Z,9.80
2023-04-28T06:05:11.745Z,10.30
2023-04-28T06:06:11.522Z,10.60
2023-04-28T06:07:11.467Z,10.90
2023-04-28T06:08:11.474Z,9.80
2023-04-28T06:09:11.466Z,10.20
2023-04-28T06:10:11.435Z,9.70
2023-04-28T06:11:11.424Z,9.70
2023-04-28T06:12:11.424Z,10.00
2023-04-28T06:13:13.852Z,9.30
2023-04-28T06:14:11.405Z,10.00
2023-04-28T06:15:11.407Z,10.00
2023-04-28T06:16:11.454Z,9.30
2023-04-28T06:17:11.377Z,10.10
2023-04-28T06:18:11.531Z,9.80
2023-04-28T06:19:11.349Z,9.80
2023-04-28T06:20:11.327Z,10.00
2023-04-28T06:21:11.319Z,10.00
2023-04-28T06:22:11.349Z,10.20
2023-04-28T06:23:11.332Z,10.20
2023-04-28T06:24:11.335Z,9.70
2023-04-28T06:25:11.332Z,10.20
2023-04-28T06:26:11.284Z,10.10
2023-04-28T06:27:11.260Z,10.30
2023-04-28T06:28:11.275Z,10.10
2023-04-28T06:29:11.284Z,10.70
2023-04-28T06:30:11.240Z,10.00
2023-04-28T06:31:11.228Z,9.70
2023-04-28T06:32:11.199Z,10.30
2023-04-28T06:33:11.226Z,9.70
2023-04-28T06:34:11.201Z,10.40
2023-04-28T06:35:11.180Z,9.70
2023-04-28T06:36:11.159Z,10.30
2023-04-28T06:37:11.159Z,10.20
2023-04-28T06:38:11.159Z,9.70
2023-04-28T06:39:11.149Z,10.10
2023-04-28T06:40:11.151Z,9.70
2023-04-28T06:41:11.116Z,9.40
2023-04-28T06:42:11.105Z,10.60
2023-04-28T06:43:11.130Z,9.80
2023-04-28T06:44:11.087Z,10.10
2023-04-28T06:45:11.080Z,10.00
2023-04-28T06:46:11.106Z,9.80
2023-04-28T06:47:11.082Z,10.40
2023-04-28T06:48:11.174Z,10.00
2023-04-28T06:49:11.043Z,9.70
2023-04-28T06:50:11.017Z,10.00
2023-04-28T06:51:11.016Z,9.60
2023-04-28T06:52:10.992Z,10.10
2023-04-28T06:53:11.013Z,9.60
2023-04-28T06:54:11.000Z,9.70
2023-04-28T06:55:10.978Z,9.70
2023-04-28T06:56:11.811Z,10.00
2023-04-28T06:57:10.947Z,9.80
2023-04-28T06:58:10.933Z,10.20
2023-04-28T06:59:10.933Z,10.00
2023-04-28T07:00:10.916Z,9.50
2023-04-28T07:01:11.001Z,10.10
2023-04-28T07:02:10.971Z,9.30
2023-04-28T07:03:11.066Z,9.90
2023-04-28T07:04:11.021Z,9.40
2023-04-28T07:05:10.888Z,9.80
2023-04-28T07:06:10.878Z,9.60
2023-04-28T07:07:10.847Z,9.50
2023-04-28T07:08:10.832Z,9.50
2023-04-28T07:09:10.864Z,9.60
2023-04-28T07:10:10.818Z,9.80
2023-04-28T07:11:10.913Z,9.40
2023-04-28T07:12:10.799Z,10.20
2023-04-28T07:13:10.826Z,10.00
2023-04-28T07:14:10.780Z,10.40
2023-04-28T07:15:10.761Z,10.00
2023-04-28T07:16:10.763Z,10.30
2023-04-28T07:17:10.758Z,10.30
2023-04-28T07:18:10.805Z,10.00
2023-04-28T07:19:10.725Z,9.60
2023-04-28T07:20:10.706Z,10.50
2023-04-28T07:21:10.696Z,9.80
2023-04-28T07:22:10.682Z,10.30
2023-04-28T07:23:10.713Z,10.10
2023-04-28T07:24:10.668Z,10.90
2023-04-28T07:25:10.658Z,10.50
2023-04-28T07:26:11.490Z,10.30
2023-04-28T07:27:10.631Z,10.90
2023-04-28T07:28:10.657Z,10.60
2023-04-28T07:29:10.636Z,11.10
2023-04-28T07:30:25.888Z,10.80
2023-04-28T07:31:10.618Z,10.60
2023-04-28T07:32:10.862Z,10.50
2023-04-28T07:33:10.608Z,11.20
2023-04-28T07:34:10.691Z,11.30
2023-04-28T07:35:10.565Z,11.20
2023-04-28T07:36:10.570Z,11.00
2023-04-28T07:37:10.538Z,11.00
2023-04-28T07:38:10.518Z,10.90
2023-04-28T07:39:10.525Z,10.60
2023-04-28T07:40:10.505Z,10.80
2023-04-28T07:41:11.338Z,10.50
2023-04-28T07:42:10.473Z,10.60
2023-04-28T07:43:10.458Z,10.70
2023-04-28T07:44:10.461Z,10.70
2023-04-28T07:45:10.450Z,10.10
2023-04-28T07:46:10.532Z,10.60
2023-04-28T07:47:10.442Z,10.70
2023-04-28T07:48:10.513Z,10.60
2023-04-28T07:49:10.413Z,10.70
2023-04-28T07:50:10.378Z,11.00
2023-04-28T07:51:10.407Z,10.20
2023-04-28T07:52:10.404Z,10.10
2023-04-28T07:53:10.380Z,10.90
2023-04-28T07:54:10.464Z,10.40
2023-04-28T07:55:10.342Z,10.80
2023-04-28T07:56:10.312Z,10.80
2023-04-28T07:57:10.343Z,10.20
2023-04-28T07:58:10.334Z,10.20
2023-04-28T07:59:10.305Z,10.10
2023-04-28T08:00:10.284Z,10.90
2023-04-28T08:01:10.284Z,10.30
2023-04-28T08:02:10.300Z,10.50
2023-04-28T08:03:10.416Z,10.10
2023-04-28T08:04:10.556Z,10.30
2023-04-28T08:05:10.915Z,10.20
2023-04-28T08:06:10.210Z,10.50
2023-04-28T08:07:10.215Z,10.30
2023-04-28T08:08:10.260Z,10.80
2023-04-28T08:09:10.193Z,11.20
2023-04-28T08:10:10.180Z,10.50
2023-04-28T08:11:10.182Z,10.80
2023-04-28T08:12:10.167Z,10.30
2023-04-28T08:13:10.177Z,10.60
2023-04-28T08:14:10.150Z,11.10
2023-04-28T08:15:10.167Z,10.80
2023-04-28T08:16:10.147Z,10.10
2023-04-28T08:17:10.119Z,10.40
2023-04-28T08:18:10.149Z,10.30
2023-04-28T08:19:10.091Z,10.10
2023-04-28T08:20:10.070Z,11.00
2023-04-28T08:21:10.064Z,10.20
2023-04-28T08:22:10.047Z,11.10
2023-04-28T08:23:10.072Z,10.50
2023-04-28T08:24:10.040Z,11.20
2023-04-28T08:25:10.022Z,11.20
2023-04-28T08:26:10.007Z,12.50
2023-04-28T08:27:09.999Z,12.60
2023-04-28T08:28:10.007Z,13.30
2023-04-28T08:29:09.979Z,13.30
2023-04-28T08:30:09.968Z,14.10
2023-04-28T08:31:09.998Z,13.20
2023-04-28T08:32:09.939Z,12.80
2023-04-28T08:33:10.025Z,11.80
2023-04-28T08:34:09.927Z,11.20
2023-04-28T08:35:09.912Z,10.70
2023-04-28T08:36:09.902Z,10.60
2023-04-28T08:37:10.012Z,10.50
2023-04-28T08:38:09.879Z,10.00
2023-04-28T08:39:11.151Z,9.60
2023-04-28T08:40:10.235Z,9.70
2023-04-28T08:41:09.860Z,9.50
2023-04-28T08:42:09.888Z,9.10
2023-04-28T08:43:09.815Z,9.30
2023-04-28T08:44:09.858Z,9.30
2023-04-28T08:45:09.801Z,9.20
2023-04-28T08:46:09.819Z,9.20
2023-04-28T08:47:09.810Z,9.90
2023-04-28T08:48:09.814Z,9.60
2023-04-28T08:49:09.781Z,9.30
2023-04-28T08:50:09.756Z,9.70
2023-04-28T08:51:09.746Z,9.50
2023-04-28T08:52:09.789Z,9.20
2023-04-28T08:53:09.734Z,9.90
2023-04-28T08:55:09.756Z,9.40
2023-04-28T08:56:09.685Z,9.60
2023-04-28T08:57:09.773Z,9.90
2023-04-28T08:58:09.676Z,8.90
2023-04-28T08:59:09.854Z,9.30
2023-04-28T09:00:09.654Z,9.70
2023-04-28T09:01:09.674Z,9.40
2023-04-28T09:02:09.767Z,9.40
2023-04-28T09:03:09.781Z,9.30
2023-04-28T09:04:11.297Z,9.20
2023-04-28T09:05:09.797Z,9.00
2023-04-28T09:06:09.597Z,9.10
2023-04-28T09:07:09.638Z,9.50
2023-04-28T09:08:09.568Z,9.00
2023-04-28T09:09:09.574Z,8.80
2023-04-28T09:10:09.546Z,8.90
2023-04-28T09:11:09.617Z,8.60
2023-04-28T09:12:09.568Z,8.70
2023-04-28T09:13:09.516Z,9.10
2023-04-28T09:14:09.520Z,8.80
2023-04-28T09:15:09.513Z,8.90
2023-04-28T09:16:09.529Z,9.30
2023-04-28T09:17:09.531Z,9.20
2023-04-28T09:18:09.513Z,9.20
2023-04-28T09:19:09.477Z,8.90
2023-04-28T09:20:09.455Z,9.10
2023-04-28T09:21:09.437Z,9.00
2023-04-28T09:22:24.761Z,8.60
2023-04-28T09:23:09.442Z,9.50
2023-04-28T09:24:09.428Z,9.20
2023-04-28T09:25:09.384Z,9.10
2023-04-28T09:26:09.396Z,9.00
2023-04-28T09:27:09.420Z,9.10
2023-04-28T09:28:09.362Z,8.90
2023-04-28T09:29:09.357Z,9.20
2023-04-28T09:30:09.334Z,8.80
2023-04-28T09:31:09.386Z,8.90
2023-04-28T09:32:09.421Z,8.70
2023-04-28T09:33:11.354Z,8.50
2023-04-28T09:34:09.768Z,8.90
2023-04-28T09:35:09.285Z,8.80
2023-04-28T09:36:09.271Z,8.20
2023-04-28T09:37:09.269Z,8.30
2023-04-28T09:38:09.293Z,8.40
2023-04-28T09:39:09.320Z,8.30
2023-04-28T09:40:09.242Z,8.50
2023-04-28T09:41:09.219Z,9.10
2023-04-28T09:42:09.218Z,8.70
2023-04-28T09:43:21.041Z,8.70
2023-04-28T09:44:09.223Z,8.80
2023-04-28T09:45:09.195Z,8.40
2023-04-28T09:46:09.207Z,8.20
2023-04-28T09:47:09.157Z,8.50
2023-04-28T09:48:09.253Z,8.40
2023-04-28T09:49:09.139Z,7.90
2023-04-28T09:50:09.128Z,8.40
2023-04-28T09:51:10.384Z,8.20
2023-04-28T09:52:09.113Z,8.40
2023-04-28T09:53:09.111Z,8.40
2023-04-28T09:54:09.102Z,8.60
2023-04-28T09:55:09.079Z,8.40
2023-04-28T09:56:09.081Z,8.40
2023-04-28T09:57:09.107Z,8.30
2023-04-28T09:58:09.078Z,8.80
2023-04-28T09:59:09.094Z,9.30
2023-04-28T10:00:09.208Z,10.90
2023-04-28T10:01:09.111Z,10.70
2023-04-28T10:02:35.850Z,11.40
2023-04-28T10:03:09.137Z,12.50
2023-04-28T10:04:09.288Z,12.80
2023-04-28T10:05:09.384Z,14.50
2023-04-28T10:06:08.984Z,15.40
2023-04-28T10:07:08.990Z,14.80
2023-04-28T10:08:09.030Z,16.20
2023-04-28T10:09:08.937Z,16.40
2023-04-28T10:10:08.946Z,15.80
2023-04-28T10:11:08.915Z,16.10
2023-04-28T10:12:08.898Z,16.00
2023-04-28T10:13:08.917Z,18.30
2023-04-28T10:14:08.901Z,18.60
2023-04-28T10:15:08.861Z,22.20
2023-04-28T10:16:09.001Z,21.30
2023-04-28T10:17:08.856Z,21.30
2023-04-28T10:18:08.895Z,23.80
2023-04-28T10:19:08.916Z,23.80
2023-04-28T10:20:08.912Z,24.70
2023-04-28T10:21:08.814Z,29.10
2023-04-28T10:22:08.803Z,27.10
2023-04-28T10:23:08.804Z,28.50
2023-04-28T10:24:08.793Z,25.30
2023-04-28T10:25:08.762Z,26.60
2023-04-28T10:26:08.772Z,29.30
2023-04-28T10:27:08.756Z,30.30
2023-04-28T10:28:08.780Z,30.20
2023-04-28T10:29:08.736Z,28.40
2023-04-28T10:30:22.985Z,27.20
2023-04-28T10:31:08.779Z,28.50
2023-04-28T10:32:08.689Z,26.30
2023-04-28T10:33:08.746Z,28.10
2023-04-28T10:34:08.674Z,25.30
2023-04-28T10:35:08.658Z,24.10
2023-04-28T10:36:08.648Z,21.10
2023-04-28T10:37:08.660Z,19.00
2023-04-28T10:38:08.745Z,19.70
2023-04-28T10:39:08.625Z,21.60
2023-04-28T10:40:08.630Z,19.90
2023-04-28T10:41:08.595Z,20.20
2023-04-28T10:42:08.580Z,21.70
2023-04-28T10:43:08.624Z,21.70
2023-04-28T10:44:08.573Z,20.40
2023-04-28T10:45:08.564Z,20.30
2023-04-28T10:46:08.656Z,20.10
2023-04-28T10:47:08.539Z,19.10
2023-04-28T10:48:08.573Z,20.20
2023-04-28T10:49:08.578Z,20.10
2023-04-28T10:50:08.497Z,21.20
2023-04-28T10:51:08.480Z,18.40
2023-04-28T10:52:08.485Z,21.10
2023-04-28T10:53:08.537Z,16.00
2023-04-28T10:54:08.480Z,17.90
2023-04-28T10:55:19.323Z,17.40
2023-04-28T10:56:08.451Z,15.70
2023-04-28T10:57:08.425Z,17.60
2023-04-28T10:58:08.437Z,17.60
2023-04-28T10:59:08.418Z,17.10
2023-04-28T11:00:08.388Z,16.00
2023-04-28T11:01:08.383Z,16.60
2023-04-28T11:02:08.421Z,17.00
2023-04-28T11:03:08.467Z,16.30
2023-04-28T11:04:08.599Z,15.60
2023-04-28T11:05:08.533Z,15.90
2023-04-28T11:06:08.326Z,16.20
2023-04-28T11:07:08.314Z,14.20
2023-04-28T11:08:08.340Z,14.20
2023-04-28T11:09:08.299Z,16.20
2023-04-28T11:10:08.286Z,19.10
2023-04-28T11:11:08.287Z,15.20
2023-04-28T11:12:08.263Z,12.90
2023-04-28T11:13:08.303Z,21.00
2023-04-28T11:14:08.282Z,13.90
2023-04-28T11:15:08.233Z,14.10
2023-04-28T11:16:08.331Z,14.60
2023-04-28T11:17:08.210Z,14.60
2023-04-28T11:18:08.255Z,14.50
2023-04-28T11:19:08.190Z,14.30
2023-04-28T11:20:08.202Z,14.80
2023-04-28T11:21:08.164Z,14.50
2023-04-28T11:22:08.240Z,14.00
2023-04-28T11:23:08.229Z,13.90
2023-04-28T11:24:08.176Z,13.50
2023-04-28T11:25:08.150Z,13.10
2023-04-28T11:26:08.147Z,12.60
2023-04-28T11:27:08.100Z,11.60
2023-04-28T11:28:08.118Z,12.40
2023-04-28T11:29:08.093Z,12.10
2023-04-28T11:30:08.069Z,12.10
2023-04-28T11:31:08.057Z,12.70
2023-04-28T11:32:08.179Z,11.90
2023-04-28T11:33:08.116Z,13.00
2023-04-28T11:34:08.068Z,12.20
2023-04-28T11:35:08.024Z,12.50
2023-04-28T11:36:08.014Z,12.50
2023-04-28T11:37:08.050Z,13.00
2023-04-28T11:38:08.228Z,12.20
2023-04-28T11:39:08.141Z,12.60
2023-04-28T11:40:07.978Z,12.20
2023-04-28T11:41:07.962Z,12.80
2023-04-28T11:42:07.953Z,12.20
2023-04-28T11:43:07.931Z,12.20
2023-04-28T11:44:07.949Z,12.10
2023-04-28T11:45:07.927Z,12.40
2023-04-28T11:46:07.947Z,12.10
2023-04-28T11:47:07.991Z,13.30
2023-04-28T11:48:07.942Z,12.00
2023-04-28T11:49:07.883Z,12.00
2023-04-28T11:50:07.867Z,12.10
2023-04-28T11:51:07.837Z,11.50
2023-04-28T11:52:07.858Z,11.00
2023-04-28T11:53:07.845Z,10.60
2023-04-28T11:54:07.864Z,10.90
2023-04-28T11:55:07.853Z,11.00
2023-04-28T11:56:07.935Z,10.90
2023-04-28T11:57:07.792Z,10.10
2023-04-28T11:58:07.816Z,10.70
2023-04-28T11:59:07.774Z,10.40
2023-04-28T12:00:07.753Z,10.30
2023-04-28T12:01:07.756Z,10.60
2023-04-28T12:02:07.807Z,9.90
2023-04-28T12:03:07.999Z,10.30
2023-04-28T12:04:07.806Z,10.10
2023-04-28T12:05:07.948Z,10.00
2023-04-28T12:06:07.684Z,10.00
2023-04-28T12:07:07.771Z,10.50
2023-04-28T12:08:07.697Z,10.20
2023-04-28T12:09:07.680Z,10.80
2023-04-28T12:10:07.681Z,10.50
2023-04-28T12:11:07.636Z,11.20
2023-04-28T12:12:07.621Z,10.50
2023-04-28T12:13:07.646Z,10.00
2023-04-28T12:14:07.620Z,10.60
2023-04-28T12:15:07.593Z,10.30
2023-04-28T12:16:07.676Z,10.90
2023-04-28T12:17:07.563Z,11.10
2023-04-28T12:18:07.692Z,10.50
2023-04-28T12:19:07.592Z,10.90
2023-04-28T12:20:07.553Z,9.80
2023-04-28T12:21:07.529Z,10.60
2023-04-28T12:22:07.575Z,10.60
2023-04-28T12:23:07.527Z,10.50
2023-04-28T12:24:07.532Z,9.90
2023-04-28T12:25:07.493Z,9.40
2023-04-28T12:26:07.481Z,9.70
2023-04-28T12:27:07.470Z,9.40
2023-04-28T12:28:07.629Z,9.30
2023-04-28T12:29:07.490Z,9.60
2023-04-28T12:30:07.503Z,9.60
2023-04-28T12:31:07.447Z,9.30
2023-04-28T12:32:07.427Z,9.10
2023-04-28T12:33:07.488Z,8.70
2023-04-28T12:34:07.560Z,8.70
2023-04-28T12:35:07.428Z,9.10
2023-04-28T12:36:07.384Z,9.40
2023-04-28T12:37:07.357Z,8.60
2023-04-28T12:38:07.376Z,9.10
2023-04-28T12:39:07.362Z,8.80
2023-04-28T12:40:07.448Z,8.80
2023-04-28T12:41:07.339Z,9.00
2023-04-28T12:42:07.321Z,9.00
2023-04-28T12:43:07.301Z,8.40
2023-04-28T12:44:07.328Z,8.40
2023-04-28T12:45:07.281Z,8.60
2023-04-28T12:46:07.312Z,8.80
2023-04-28T12:47:07.292Z,9.10
2023-04-28T12:48:07.289Z,9.10
2023-04-28T12:49:07.284Z,9.00
2023-04-28T12:50:07.265Z,9.20
2023-04-28T12:51:07.230Z,9.00
2023-04-28T12:52:07.203Z,9.20
2023-04-28T12:53:07.197Z,9.30
2023-04-28T12:54:07.217Z,9.20
2023-04-28T12:55:07.192Z,9.00
2023-04-28T12:56:07.164Z,9.20
2023-04-28T12:57:07.353Z,9.20
2023-04-28T12:58:07.141Z,9.00
2023-04-28T12:59:07.184Z,9.00
2023-04-28T13:00:07.201Z,8.70
2023-04-28T13:01:07.124Z,9.20
2023-04-28T13:02:07.163Z,8.40
2023-04-28T13:03:07.311Z,8.40
2023-04-28T13:04:07.304Z,8.60
2023-04-28T13:05:07.212Z,8.70
2023-04-28T13:06:07.060Z,8.50
2023-04-28T13:07:07.060Z,8.50
2023-04-28T13:08:07.043Z,8.90
2023-04-28T13:09:07.062Z,8.70